sensor_id;sensor_type;location;lat;lon;timestamp;P1;durP1;ratioP1;P2;durP2;ratioP2
36303;SDS011;22335;49.800;8.596;2023-02-01T00:02:56;9.85;;;9.00;;
36303;SDS011;22335;49.800;8.596;2023-02-01T00:09:39;9.95;;;9.02;;
36303;SDS011;22335;49.800;8.596;2023-02-01T00:16:23;9.90;;;8.95;;
36303;SDS011;22335;49.800;8.596;2023-02-01T00:23:10;9.40;;;8.43;;
36303;SDS011;22335;49.800;8.596;2023-02-01T00:29:53;9.60;;;8.80;;
36303;SDS011;22335;49.800;8.596;2023-02-01T00:36:37;10.10;;;9.13;;
36303;SDS011;22335;49.800;8.596;2023-02-01T00:43:22;10.25;;;9.35;;
36303;SDS011;22335;49.800;8.596;2023-02-01T00:50:06;10.45;;;9.60;;
36303;SDS011;22335;49.800;8.596;2023-02-01T00:56:50;10.32;;;9.63;;
36303;SDS011;22335;49.800;8.596;2023-02-01T01:03:36;10.60;;;9.70;;
36303;SDS011;22335;49.800;8.596;2023-02-01T01:10:21;11.27;;;10.23;;
36303;SDS011;22335;49.800;8.596;2023-02-01T01:17:06;11.90;;;10.80;;
36303;SDS011;22335;49.800;8.596;2023-02-01T01:23:51;11.25;;;10.45;;
36303;SDS011;22335;49.800;8.596;2023-02-01T01:30:34;11.23;;;10.23;;
36303;SDS011;22335;49.800;8.596;2023-02-01T01:37:18;12.50;;;11.35;;
36303;SDS011;22335;49.800;8.596;2023-02-01T01:44:04;11.60;;;10.60;;
36303;SDS011;22335;49.800;8.596;2023-02-01T01:51:09;13.03;;;10.13;;
36303;SDS011;22335;49.800;8.596;2023-02-01T01:57:57;10.60;;;9.60;;
36303;SDS011;22335;49.800;8.596;2023-02-01T02:04:46;11.77;;;10.73;;
36303;SDS011;22335;49.800;8.596;2023-02-01T02:11:30;10.77;;;9.88;;
36303;SDS011;22335;49.800;8.596;2023-02-01T02:18:15;10.32;;;9.43;;
36303;SDS011;22335;49.800;8.596;2023-02-01T02:25:18;10.32;;;9.30;;
36303;SDS011;22335;49.800;8.596;2023-02-01T02:40:04;11.20;;;10.07;;
36303;SDS011;22335;49.800;8.596;2023-02-01T02:46:59;9.85;;;8.95;;
36303;SDS011;22335;49.800;8.596;2023-02-01T02:54:10;10.23;;;9.25;;
36303;SDS011;22335;49.800;8.596;2023-02-01T03:01:15;10.10;;;9.30;;
36303;SDS011;22335;49.800;8.596;2023-02-01T03:08:17;10.27;;;9.38;;
36303;SDS011;22335;49.800;8.596;2023-02-01T03:15:05;11.57;;;10.40;;
36303;SDS011;22335;49.800;8.596;2023-02-01T03:21:59;10.40;;;9.57;;
36303;SDS011;22335;49.800;8.596;2023-02-01T03:28:48;11.00;;;10.10;;
36303;SDS011;22335;49.800;8.596;2023-02-01T03:35:39;11.02;;;10.00;;
36303;SDS011;22335;49.800;8.596;2023-02-01T03:42:27;12.77;;;11.57;;
36303;SDS011;22335;49.800;8.596;2023-02-01T04:04:22;14.10;;;12.25;;
36303;SDS011;22335;49.800;8.596;2023-02-01T04:17:51;12.23;;;11.00;;
36303;SDS011;22335;49.800;8.596;2023-02-01T04:24:36;11.25;;;10.20;;
36303;SDS011;22335;49.800;8.596;2023-02-01T04:31:19;11.43;;;10.43;;
36303;SDS011;22335;49.800;8.596;2023-02-01T04:38:06;11.40;;;9.93;;
36303;SDS011;22335;49.800;8.596;2023-02-01T04:44:51;10.82;;;9.70;;
36303;SDS011;22335;49.800;8.596;2023-02-01T04:51:34;9.50;;;8.60;;
36303;SDS011;22335;49.800;8.596;2023-02-01T04:58:18;9.35;;;8.50;;
36303;SDS011;22335;49.800;8.596;2023-02-01T05:05:03;9.60;;;8.80;;
36303;SDS011;22335;49.800;8.596;2023-02-01T05:11:47;9.37;;;8.47;;
36303;SDS011;22335;49.800;8.596;2023-02-01T05:18:48;9.05;;;8.25;;
36303;SDS011;22335;49.800;8.596;2023-02-01T05:25:33;8.60;;;7.80;;
36303;SDS011;22335;49.800;8.596;2023-02-01T05:32:16;9.32;;;7.40;;
36303;SDS011;22335;49.800;8.596;2023-02-01T05:39:02;7.53;;;6.73;;
36303;SDS011;22335;49.800;8.596;2023-02-01T05:45:48;7.78;;;7.00;;
36303;SDS011;22335;49.800;8.596;2023-02-01T05:52:31;7.80;;;7.10;;
36303;SDS011;22335;49.800;8.596;2023-02-01T05:59:15;7.55;;;6.82;;
36303;SDS011;22335;49.800;8.596;2023-02-01T06:06:00;6.80;;;6.40;;
36303;SDS011;22335;49.800;8.596;2023-02-01T06:12:44;6.63;;;6.13;;
36303;SDS011;22335;49.800;8.596;2023-02-01T06:19:28;7.72;;;7.13;;
36303;SDS011;22335;49.800;8.596;2023-02-01T06:26:12;7.93;;;7.07;;
36303;SDS011;22335;49.800;8.596;2023-02-01T06:39:42;9.73;;;8.70;;
36303;SDS011;22335;49.800;8.596;2023-02-01T06:46:27;9.90;;;8.65;;
36303;SDS011;22335;49.800;8.596;2023-02-01T06:53:11;12.30;;;8.00;;
36303;SDS011;22335;49.800;8.596;2023-02-01T06:59:54;9.18;;;8.48;;
36303;SDS011;22335;49.800;8.596;2023-02-01T07:06:39;9.85;;;9.02;;
36303;SDS011;22335;49.800;8.596;2023-02-01T07:13:23;9.80;;;8.93;;
36303;SDS011;22335;49.800;8.596;2023-02-01T07:20:07;9.55;;;8.52;;
36303;SDS011;22335;49.800;8.596;2023-02-01T07:26:53;9.23;;;8.30;;
36303;SDS011;22335;49.800;8.596;2023-02-01T07:33:37;10.02;;;8.90;;
36303;SDS011;22335;49.800;8.596;2023-02-01T07:40:20;10.52;;;9.52;;
36303;SDS011;22335;49.800;8.596;2023-02-01T07:47:10;15.48;;;10.05;;
36303;SDS011;22335;49.800;8.596;2023-02-01T07:53:54;16.70;;;10.93;;
36303;SDS011;22335;49.800;8.596;2023-02-01T08:00:37;11.63;;;10.40;;
36303;SDS011;22335;49.800;8.596;2023-02-01T08:07:40;13.68;;;10.88;;
36303;SDS011;22335;49.800;8.596;2023-02-01T08:14:23;15.68;;;11.73;;
36303;SDS011;22335;49.800;8.596;2023-02-01T08:21:08;12.20;;;11.02;;
36303;SDS011;22335;49.800;8.596;2023-02-01T08:27:54;17.13;;;10.13;;
36303;SDS011;22335;49.800;8.596;2023-02-01T08:34:38;11.52;;;10.32;;
36303;SDS011;22335;49.800;8.596;2023-02-01T08:41:22;16.38;;;10.50;;
36303;SDS011;22335;49.800;8.596;2023-02-01T08:54:52;15.85;;;10.57;;
36303;SDS011;22335;49.800;8.596;2023-02-01T09:01:36;15.73;;;11.02;;
36303;SDS011;22335;49.800;8.596;2023-02-01T09:08:21;16.77;;;10.98;;
36303;SDS011;22335;49.800;8.596;2023-02-01T09:15:05;13.65;;;10.70;;
36303;SDS011;22335;49.800;8.596;2023-02-01T09:21:50;14.25;;;10.60;;
36303;SDS011;22335;49.800;8.596;2023-02-01T09:28:34;14.02;;;9.68;;
36303;SDS011;22335;49.800;8.596;2023-02-01T09:35:18;15.82;;;9.65;;
36303;SDS011;22335;49.800;8.596;2023-02-01T09:42:04;12.75;;;9.55;;
36303;SDS011;22335;49.800;8.596;2023-02-01T09:49:03;17.35;;;9.55;;
36303;SDS011;22335;49.800;8.596;2023-02-01T09:55:53;16.00;;;8.82;;
36303;SDS011;22335;49.800;8.596;2023-02-01T10:02:39;12.88;;;8.10;;
36303;SDS011;22335;49.800;8.596;2023-02-01T10:09:44;11.65;;;8.00;;
36303;SDS011;22335;49.800;8.596;2023-02-01T10:16:40;11.48;;;8.15;;
36303;SDS011;22335;49.800;8.596;2023-02-01T10:23:40;15.70;;;8.82;;
36303;SDS011;22335;49.800;8.596;2023-02-01T10:30:58;14.23;;;7.28;;
36303;SDS011;22335;49.800;8.596;2023-02-01T10:37:43;13.73;;;8.02;;
36303;SDS011;22335;49.800;8.596;2023-02-01T10:44:28;12.35;;;7.20;;
36303;SDS011;22335;49.800;8.596;2023-02-01T10:51:17;13.35;;;7.60;;
36303;SDS011;22335;49.800;8.596;2023-02-01T10:58:05;8.88;;;7.13;;
36303;SDS011;22335;49.800;8.596;2023-02-01T11:05:00;13.52;;;7.80;;
36303;SDS011;22335;49.800;8.596;2023-02-01T11:11:54;12.35;;;8.05;;
36303;SDS011;22335;49.800;8.596;2023-02-01T11:18:43;12.15;;;7.00;;
36303;SDS011;22335;49.800;8.596;2023-02-01T11:25:26;14.73;;;7.93;;
36303;SDS011;22335;49.800;8.596;2023-02-01T11:32:12;12.40;;;7.80;;
36303;SDS011;22335;49.800;8.596;2023-02-01T11:39:09;13.43;;;8.00;;
36303;SDS011;22335;49.800;8.596;2023-02-01T11:46:03;11.05;;;7.35;;
36303;SDS011;22335;49.800;8.596;2023-02-01T11:53:14;13.18;;;7.00;;
36303;SDS011;22335;49.800;8.596;2023-02-01T12:00:32;8.45;;;6.75;;
36303;SDS011;22335;49.800;8.596;2023-02-01T12:07:39;10.75;;;7.53;;
36303;SDS011;22335;49.800;8.596;2023-02-01T12:14:50;12.18;;;7.68;;
36303;SDS011;22335;49.800;8.596;2023-02-01T12:21:50;13.85;;;7.55;;
36303;SDS011;22335;49.800;8.596;2023-02-01T12:28:49;11.88;;;7.35;;
36303;SDS011;22335;49.800;8.596;2023-02-01T12:36:03;12.05;;;7.22;;
36303;SDS011;22335;49.800;8.596;2023-02-01T12:42:57;13.95;;;7.22;;
36303;SDS011;22335;49.800;8.596;2023-02-01T12:49:47;14.00;;;7.72;;
36303;SDS011;22335;49.800;8.596;2023-02-01T12:56:40;11.38;;;7.75;;
36303;SDS011;22335;49.800;8.596;2023-02-01T13:03:31;14.40;;;7.47;;
36303;SDS011;22335;49.800;8.596;2023-02-01T13:10:21;12.95;;;7.57;;
36303;SDS011;22335;49.800;8.596;2023-02-01T13:17:15;12.57;;;7.55;;
36303;SDS011;22335;49.800;8.596;2023-02-01T13:24:06;8.27;;;7.32;;
36303;SDS011;22335;49.800;8.596;2023-02-01T13:38:44;12.18;;;7.65;;
36303;SDS011;22335;49.800;8.596;2023-02-01T13:45:47;10.77;;;7.78;;
36303;SDS011;22335;49.800;8.596;2023-02-01T13:52:36;14.77;;;7.63;;
36303;SDS011;22335;49.800;8.596;2023-02-01T13:59:46;12.38;;;7.30;;
36303;SDS011;22335;49.800;8.596;2023-02-01T14:06:38;9.90;;;6.82;;
36303;SDS011;22335;49.800;8.596;2023-02-01T14:13:27;10.13;;;6.85;;
36303;SDS011;22335;49.800;8.596;2023-02-01T14:27:35;13.27;;;7.38;;
36303;SDS011;22335;49.800;8.596;2023-02-01T14:34:20;13.73;;;7.18;;
36303;SDS011;22335;49.800;8.596;2023-02-01T14:41:12;11.57;;;7.07;;
36303;SDS011;22335;49.800;8.596;2023-02-01T14:55:28;13.07;;;7.30;;
36303;SDS011;22335;49.800;8.596;2023-02-01T15:02:21;13.85;;;7.15;;
36303;SDS011;22335;49.800;8.596;2023-02-01T15:09:09;14.13;;;7.45;;
36303;SDS011;22335;49.800;8.596;2023-02-01T15:16:00;11.65;;;7.72;;
36303;SDS011;22335;49.800;8.596;2023-02-01T15:22:53;13.27;;;7.68;;
36303;SDS011;22335;49.800;8.596;2023-02-01T15:29:39;9.18;;;7.03;;
36303;SDS011;22335;49.800;8.596;2023-02-01T15:36:23;9.10;;;6.65;;
36303;SDS011;22335;49.800;8.596;2023-02-01T15:43:11;12.35;;;7.10;;
36303;SDS011;22335;49.800;8.596;2023-02-01T15:49:57;11.40;;;7.38;;
36303;SDS011;22335;49.800;8.596;2023-02-01T15:56:42;10.60;;;6.93;;
36303;SDS011;22335;49.800;8.596;2023-02-01T16:03:35;17.08;;;7.47;;
36303;SDS011;22335;49.800;8.596;2023-02-01T16:10:24;12.88;;;7.57;;
36303;SDS011;22335;49.800;8.596;2023-02-01T16:23:54;12.50;;;7.60;;
36303;SDS011;22335;49.800;8.596;2023-02-01T16:30:37;12.48;;;7.57;;
36303;SDS011;22335;49.800;8.596;2023-02-01T16:37:21;13.35;;;8.27;;
36303;SDS011;22335;49.800;8.596;2023-02-01T16:44:10;14.20;;;7.47;;
36303;SDS011;22335;49.800;8.596;2023-02-01T16:50:56;13.25;;;7.80;;
36303;SDS011;22335;49.800;8.596;2023-02-01T16:57:42;18.10;;;7.90;;
36303;SDS011;22335;49.800;8.596;2023-02-01T17:04:27;12.32;;;8.10;;
36303;SDS011;22335;49.800;8.596;2023-02-01T17:11:11;12.15;;;7.15;;
36303;SDS011;22335;49.800;8.596;2023-02-01T17:17:56;11.52;;;7.13;;
36303;SDS011;22335;49.800;8.596;2023-02-01T17:24:44;13.65;;;7.20;;
36303;SDS011;22335;49.800;8.596;2023-02-01T17:31:29;15.48;;;8.10;;
36303;SDS011;22335;49.800;8.596;2023-02-01T17:38:21;16.65;;;8.07;;
36303;SDS011;22335;49.800;8.596;2023-02-01T17:45:13;19.88;;;8.25;;
36303;SDS011;22335;49.800;8.596;2023-02-01T17:52:06;19.30;;;8.32;;
36303;SDS011;22335;49.800;8.596;2023-02-01T17:58:57;13.48;;;7.95;;
36303;SDS011;22335;49.800;8.596;2023-02-01T18:05:43;20.23;;;8.48;;
36303;SDS011;22335;49.800;8.596;2023-02-01T18:12:31;12.07;;;7.85;;
36303;SDS011;22335;49.800;8.596;2023-02-01T18:19:17;13.00;;;8.00;;
36303;SDS011;22335;49.800;8.596;2023-02-01T18:26:02;14.35;;;7.80;;
36303;SDS011;22335;49.800;8.596;2023-02-01T18:32:46;14.52;;;7.88;;
36303;SDS011;22335;49.800;8.596;2023-02-01T18:39:30;13.70;;;8.07;;
36303;SDS011;22335;49.800;8.596;2023-02-01T18:46:15;10.88;;;8.02;;
36303;SDS011;22335;49.800;8.596;2023-02-01T18:52:59;15.38;;;8.10;;
36303;SDS011;22335;49.800;8.596;2023-02-01T18:59:46;14.60;;;7.97;;
36303;SDS011;22335;49.800;8.596;2023-02-01T19:06:31;15.18;;;7.57;;
36303;SDS011;22335;49.800;8.596;2023-02-01T19:13:15;13.18;;;7.65;;
36303;SDS011;22335;49.800;8.596;2023-02-01T19:20:01;13.50;;;8.00;;
36303;SDS011;22335;49.800;8.596;2023-02-01T19:26:47;11.05;;;7.60;;
36303;SDS011;22335;49.800;8.596;2023-02-01T19:33:31;12.32;;;7.88;;
36303;SDS011;22335;49.800;8.596;2023-02-01T19:40:17;15.85;;;7.57;;
36303;SDS011;22335;49.800;8.596;2023-02-01T19:47:03;14.35;;;7.82;;
36303;SDS011;22335;49.800;8.596;2023-02-01T19:53:46;19.65;;;8.85;;
36303;SDS011;22335;49.800;8.596;2023-02-01T20:00:30;14.52;;;8.07;;
36303;SDS011;22335;49.800;8.596;2023-02-01T20:07:15;11.15;;;7.43;;
36303;SDS011;22335;49.800;8.596;2023-02-01T20:13:58;15.32;;;7.70;;
36303;SDS011;22335;49.800;8.596;2023-02-01T20:20:42;14.05;;;8.80;;
36303;SDS011;22335;49.800;8.596;2023-02-01T20:27:27;13.35;;;7.65;;
36303;SDS011;22335;49.800;8.596;2023-02-01T20:34:10;15.40;;;8.40;;
36303;SDS011;22335;49.800;8.596;2023-02-01T20:41:00;14.52;;;8.70;;
36303;SDS011;22335;49.800;8.596;2023-02-01T20:47:48;13.18;;;8.07;;
36303;SDS011;22335;49.800;8.596;2023-02-01T20:54:32;16.75;;;8.70;;
36303;SDS011;22335;49.800;8.596;2023-02-01T21:01:16;17.15;;;8.90;;
36303;SDS011;22335;49.800;8.596;2023-02-01T21:08:01;14.98;;;8.38;;
36303;SDS011;22335;49.800;8.596;2023-02-01T21:14:44;14.68;;;8.32;;
36303;SDS011;22335;49.800;8.596;2023-02-01T21:21:28;13.80;;;8.27;;
36303;SDS011;22335;49.800;8.596;2023-02-01T21:28:13;16.88;;;9.30;;
36303;SDS011;22335;49.800;8.596;2023-02-01T21:34:58;15.47;;;8.77;;
36303;SDS011;22335;49.800;8.596;2023-02-01T21:41:43;13.98;;;8.27;;
36303;SDS011;22335;49.800;8.596;2023-02-01T21:48:45;17.02;;;8.55;;
36303;SDS011;22335;49.800;8.596;2023-02-01T21:55:28;14.88;;;8.25;;
36303;SDS011;22335;49.800;8.596;2023-02-01T22:02:13;12.63;;;8.20;;
36303;SDS011;22335;49.800;8.596;2023-02-01T22:08:59;15.20;;;8.45;;
36303;SDS011;22335;49.800;8.596;2023-02-01T22:15:43;12.85;;;8.35;;
36303;SDS011;22335;49.800;8.596;2023-02-01T22:22:26;14.90;;;8.23;;
36303;SDS011;22335;49.800;8.596;2023-02-01T22:29:11;13.60;;;8.43;;
36303;SDS011;22335;49.800;8.596;2023-02-01T22:35:55;12.55;;;8.73;;
36303;SDS011;22335;49.800;8.596;2023-02-01T22:42:39;15.18;;;8.65;;
36303;SDS011;22335;49.800;8.596;2023-02-01T22:49:24;11.80;;;8.05;;
36303;SDS011;22335;49.800;8.596;2023-02-01T22:56:08;16.33;;;8.77;;
36303;SDS011;22335;49.800;8.596;2023-02-01T23:02:54;14.93;;;8.07;;
36303;SDS011;22335;49.800;8.596;2023-02-01T23:09:39;14.60;;;9.43;;
36303;SDS011;22335;49.800;8.596;2023-02-01T23:16:23;15.35;;;8.05;;
36303;SDS011;22335;49.800;8.596;2023-02-01T23:23:07;12.80;;;8.13;;
36303;SDS011;22335;49.800;8.596;2023-02-01T23:29:52;16.50;;;8.63;;
36303;SDS011;22335;49.800;8.596;2023-02-01T23:36:35;15.98;;;8.20;;
36303;SDS011;22335;49.800;8.596;2023-02-01T23:43:18;17.33;;;8.40;;
36303;SDS011;22335;49.800;8.596;2023-02-01T23:50:23;17.38;;;8.63;;
36303;SDS011;22335;49.800;8.596;2023-02-01T23:57:07;15.82;;;8.38;;
